Terminal Aerodrome Forecast
Issued by NWS Hastings, NE

Current Version | Previous Version | Text Only | Print | Product List | Glossary On
Versions: 1 2 3 4 5 6 7 8 9 10 11 12 13 14 15 16
000
FTUS45 KGID 272340
TAFEAR
TAF
KEAR 272340Z 2800/2824 14007KT P6SM SCT100 BKN250
     FM280200 15011KT P6SM VCTS SCT050CB OVC250
     FM280800 16011KT P6SM BKN050
     FM281500 16014KT P6SM BKN100
     FM281800 17016G23KT P6SM VCTS BKN050CB
      AMD LTD TO CLD VIS AND WIND=

USA.gov is the U.S. government's official web portal to all federal, state and local government web resources and services.